sensor_id;sensor_type;location;lat;lon;timestamp;P1;durP1;ratioP1;P2;durP2;ratioP2
8048;SDS011;20935;42.660;23.342;2022-12-01T00:00:05;1.90;;;1.80;;
8048;SDS011;20935;42.660;23.342;2022-12-01T00:02:31;1.50;;;1.40;;
8048;SDS011;20935;42.660;23.342;2022-12-01T00:04:56;1.33;;;1.23;;
8048;SDS011;20935;42.660;23.342;2022-12-01T00:07:21;1.60;;;1.50;;
8048;SDS011;20935;42.660;23.342;2022-12-01T00:09:47;1.40;;;1.30;;
8048;SDS011;20935;42.660;23.342;2022-12-01T00:12:30;1.53;;;1.43;;
8048;SDS011;20935;42.660;23.342;2022-12-01T00:14:56;1.47;;;1.37;;
8048;SDS011;20935;42.660;23.342;2022-12-01T00:17:24;2.80;;;1.50;;
8048;SDS011;20935;42.660;23.342;2022-12-01T00:19:50;3.20;;;1.70;;
8048;SDS011;20935;42.660;23.342;2022-12-01T00:22:15;1.70;;;1.60;;
8048;SDS011;20935;42.660;23.342;2022-12-01T00:24:40;1.70;;;1.60;;
8048;SDS011;20935;42.660;23.342;2022-12-01T00:27:05;1.60;;;1.50;;
8048;SDS011;20935;42.660;23.342;2022-12-01T00:29:31;1.57;;;1.47;;
8048;SDS011;20935;42.660;23.342;2022-12-01T00:32:08;1.63;;;1.53;;
8048;SDS011;20935;42.660;23.342;2022-12-01T00:34:33;1.60;;;1.50;;
8048;SDS011;20935;42.660;23.342;2022-12-01T00:36:59;1.83;;;1.50;;
8048;SDS011;20935;42.660;23.342;2022-12-01T00:39:24;1.70;;;1.40;;
8048;SDS011;20935;42.660;23.342;2022-12-01T00:41:50;3.87;;;1.60;;
8048;SDS011;20935;42.660;23.342;2022-12-01T00:44:15;1.53;;;1.43;;
8048;SDS011;20935;42.660;23.342;2022-12-01T00:46:40;1.50;;;1.40;;
8048;SDS011;20935;42.660;23.342;2022-12-01T00:49:05;1.40;;;1.30;;
8048;SDS011;20935;42.660;23.342;2022-12-01T00:51:31;1.37;;;1.33;;
8048;SDS011;20935;42.660;23.342;2022-12-01T00:53:56;1.50;;;1.40;;
8048;SDS011;20935;42.660;23.342;2022-12-01T00:56:21;1.60;;;1.50;;
8048;SDS011;20935;42.660;23.342;2022-12-01T00:58:47;1.43;;;1.33;;
8048;SDS011;20935;42.660;23.342;2022-12-01T01:01:12;1.37;;;1.37;;
8048;SDS011;20935;42.660;23.342;2022-12-01T01:03:37;1.90;;;1.80;;
8048;SDS011;20935;42.660;23.342;2022-12-01T01:06:06;1.60;;;1.23;;
8048;SDS011;20935;42.660;23.342;2022-12-01T01:08:32;1.40;;;1.30;;
8048;SDS011;20935;42.660;23.342;2022-12-01T01:10:58;1.07;;;1.07;;
8048;SDS011;20935;42.660;23.342;2022-12-01T01:13:23;1.40;;;1.30;;
8048;SDS011;20935;42.660;23.342;2022-12-01T01:15:56;1.50;;;1.40;;
8048;SDS011;20935;42.660;23.342;2022-12-01T01:18:21;1.50;;;1.40;;
8048;SDS011;20935;42.660;23.342;2022-12-01T01:20:53;1.70;;;1.60;;
8048;SDS011;20935;42.660;23.342;2022-12-01T01:23:18;1.50;;;1.40;;
8048;SDS011;20935;42.660;23.342;2022-12-01T01:25:44;1.40;;;1.30;;
8048;SDS011;20935;42.660;23.342;2022-12-01T01:28:09;1.57;;;1.47;;
8048;SDS011;20935;42.660;23.342;2022-12-01T01:30:37;1.67;;;1.30;;
8048;SDS011;20935;42.660;23.342;2022-12-01T01:33:02;1.60;;;1.50;;
8048;SDS011;20935;42.660;23.342;2022-12-01T01:35:28;1.57;;;1.47;;
8048;SDS011;20935;42.660;23.342;2022-12-01T01:37:53;1.57;;;1.47;;
8048;SDS011;20935;42.660;23.342;2022-12-01T01:40:19;1.43;;;1.33;;
8048;SDS011;20935;42.660;23.342;2022-12-01T01:42:44;1.30;;;1.30;;
8048;SDS011;20935;42.660;23.342;2022-12-01T01:45:19;1.70;;;1.40;;
8048;SDS011;20935;42.660;23.342;2022-12-01T01:47:45;1.20;;;1.20;;
8048;SDS011;20935;42.660;23.342;2022-12-01T01:50:11;1.57;;;1.47;;
8048;SDS011;20935;42.660;23.342;2022-12-01T01:52:39;1.40;;;1.30;;
8048;SDS011;20935;42.660;23.342;2022-12-01T01:55:06;1.60;;;1.50;;
8048;SDS011;20935;42.660;23.342;2022-12-01T01:57:31;1.40;;;1.30;;
8048;SDS011;20935;42.660;23.342;2022-12-01T01:59:59;1.20;;;1.20;;
8048;SDS011;20935;42.660;23.342;2022-12-01T02:02:25;1.50;;;1.40;;
8048;SDS011;20935;42.660;23.342;2022-12-01T02:04:52;1.43;;;1.33;;
8048;SDS011;20935;42.660;23.342;2022-12-01T02:07:19;1.50;;;1.40;;
8048;SDS011;20935;42.660;23.342;2022-12-01T02:09:44;1.37;;;1.30;;
8048;SDS011;20935;42.660;23.342;2022-12-01T02:35:00;1.10;;;1.10;;
8048;SDS011;20935;42.660;23.342;2022-12-01T02:45:34;1.43;;;1.33;;
8048;SDS011;20935;42.660;23.342;2022-12-01T02:48:01;1.20;;;1.20;;
8048;SDS011;20935;42.660;23.342;2022-12-01T02:50:29;1.40;;;1.30;;
8048;SDS011;20935;42.660;23.342;2022-12-01T02:52:56;1.53;;;1.50;;
8048;SDS011;20935;42.660;23.342;2022-12-01T02:55:22;1.23;;;1.20;;
8048;SDS011;20935;42.660;23.342;2022-12-01T02:57:47;1.73;;;1.63;;
8048;SDS011;20935;42.660;23.342;2022-12-01T03:00:12;1.30;;;1.30;;
8048;SDS011;20935;42.660;23.342;2022-12-01T03:02:47;1.20;;;1.20;;
8048;SDS011;20935;42.660;23.342;2022-12-01T03:05:20;1.63;;;1.40;;
8048;SDS011;20935;42.660;23.342;2022-12-01T03:08:31;1.50;;;1.40;;
8048;SDS011;20935;42.660;23.342;2022-12-01T03:20:53;1.50;;;1.40;;
8048;SDS011;20935;42.660;23.342;2022-12-01T03:23:21;1.33;;;1.33;;
8048;SDS011;20935;42.660;23.342;2022-12-01T03:25:47;1.20;;;1.20;;
8048;SDS011;20935;42.660;23.342;2022-12-01T03:28:13;1.23;;;1.23;;
8048;SDS011;20935;42.660;23.342;2022-12-01T03:30:40;1.27;;;1.27;;
8048;SDS011;20935;42.660;23.342;2022-12-01T03:33:10;1.20;;;1.20;;
8048;SDS011;20935;42.660;23.342;2022-12-01T03:35:44;1.37;;;1.20;;
8048;SDS011;20935;42.660;23.342;2022-12-01T03:38:12;1.53;;;1.43;;
8048;SDS011;20935;42.660;23.342;2022-12-01T03:40:38;1.27;;;1.27;;
8048;SDS011;20935;42.660;23.342;2022-12-01T03:43:08;1.20;;;1.20;;
8048;SDS011;20935;42.660;23.342;2022-12-01T03:48:15;1.53;;;1.20;;
8048;SDS011;20935;42.660;23.342;2022-12-01T03:50:47;1.10;;;1.10;;
8048;SDS011;20935;42.660;23.342;2022-12-01T03:53:16;1.10;;;1.10;;
8048;SDS011;20935;42.660;23.342;2022-12-01T03:55:45;1.37;;;1.30;;
8048;SDS011;20935;42.660;23.342;2022-12-01T03:58:15;1.73;;;1.33;;
8048;SDS011;20935;42.660;23.342;2022-12-01T04:00:42;1.30;;;1.20;;
8048;SDS011;20935;42.660;23.342;2022-12-01T04:03:15;1.83;;;1.20;;
8048;SDS011;20935;42.660;23.342;2022-12-01T04:05:40;1.30;;;1.20;;
8048;SDS011;20935;42.660;23.342;2022-12-01T04:08:06;1.57;;;1.30;;
8048;SDS011;20935;42.660;23.342;2022-12-01T04:10:31;1.20;;;1.20;;
8048;SDS011;20935;42.660;23.342;2022-12-01T04:12:57;1.33;;;1.23;;
8048;SDS011;20935;42.660;23.342;2022-12-01T04:15:23;1.40;;;1.30;;
8048;SDS011;20935;42.660;23.342;2022-12-01T04:17:49;1.40;;;1.30;;
8048;SDS011;20935;42.660;23.342;2022-12-01T04:20:14;1.30;;;1.30;;
8048;SDS011;20935;42.660;23.342;2022-12-01T04:22:40;1.53;;;1.43;;
8048;SDS011;20935;42.660;23.342;2022-12-01T04:25:06;1.60;;;1.50;;
8048;SDS011;20935;42.660;23.342;2022-12-01T04:27:31;1.50;;;1.50;;
8048;SDS011;20935;42.660;23.342;2022-12-01T04:29:57;1.67;;;1.57;;
8048;SDS011;20935;42.660;23.342;2022-12-01T04:32:22;1.77;;;1.60;;
8048;SDS011;20935;42.660;23.342;2022-12-01T04:34:47;1.10;;;1.10;;
8048;SDS011;20935;42.660;23.342;2022-12-01T04:37:13;1.73;;;1.30;;
8048;SDS011;20935;42.660;23.342;2022-12-01T04:39:38;1.70;;;1.60;;
8048;SDS011;20935;42.660;23.342;2022-12-01T04:42:06;2.03;;;1.83;;
8048;SDS011;20935;42.660;23.342;2022-12-01T04:44:31;1.50;;;1.40;;
8048;SDS011;20935;42.660;23.342;2022-12-01T04:46:56;1.40;;;1.30;;
8048;SDS011;20935;42.660;23.342;2022-12-01T04:49:21;1.80;;;1.70;;
8048;SDS011;20935;42.660;23.342;2022-12-01T04:51:47;2.47;;;1.30;;
8048;SDS011;20935;42.660;23.342;2022-12-01T04:54:12;1.47;;;1.37;;
8048;SDS011;20935;42.660;23.342;2022-12-01T04:56:38;1.77;;;1.50;;
8048;SDS011;20935;42.660;23.342;2022-12-01T04:59:03;2.60;;;1.50;;
8048;SDS011;20935;42.660;23.342;2022-12-01T05:01:28;1.60;;;1.50;;
8048;SDS011;20935;42.660;23.342;2022-12-01T05:03:53;1.50;;;1.40;;
8048;SDS011;20935;42.660;23.342;2022-12-01T05:06:20;1.43;;;1.33;;
8048;SDS011;20935;42.660;23.342;2022-12-01T05:08:49;2.30;;;1.50;;
8048;SDS011;20935;42.660;23.342;2022-12-01T05:11:15;1.70;;;1.60;;
8048;SDS011;20935;42.660;23.342;2022-12-01T05:13:41;2.37;;;1.57;;
8048;SDS011;20935;42.660;23.342;2022-12-01T05:16:10;2.23;;;1.50;;
8048;SDS011;20935;42.660;23.342;2022-12-01T05:18:35;1.70;;;1.50;;
8048;SDS011;20935;42.660;23.342;2022-12-01T05:21:01;2.07;;;1.50;;
8048;SDS011;20935;42.660;23.342;2022-12-01T05:23:28;2.10;;;1.90;;
8048;SDS011;20935;42.660;23.342;2022-12-01T05:25:54;3.83;;;1.73;;
8048;SDS011;20935;42.660;23.342;2022-12-01T05:28:19;2.30;;;2.10;;
8048;SDS011;20935;42.660;23.342;2022-12-01T05:30:46;1.60;;;1.50;;
8048;SDS011;20935;42.660;23.342;2022-12-01T05:33:12;1.60;;;1.50;;
8048;SDS011;20935;42.660;23.342;2022-12-01T05:35:37;2.10;;;1.77;;
8048;SDS011;20935;42.660;23.342;2022-12-01T05:38:02;1.70;;;1.60;;
8048;SDS011;20935;42.660;23.342;2022-12-01T05:40:28;2.00;;;1.80;;
8048;SDS011;20935;42.660;23.342;2022-12-01T05:42:55;2.10;;;2.00;;
8048;SDS011;20935;42.660;23.342;2022-12-01T05:45:20;2.57;;;2.00;;
8048;SDS011;20935;42.660;23.342;2022-12-01T05:47:45;1.97;;;1.70;;
8048;SDS011;20935;42.660;23.342;2022-12-01T05:50:10;1.70;;;1.50;;
8048;SDS011;20935;42.660;23.342;2022-12-01T05:52:36;5.30;;;1.90;;
8048;SDS011;20935;42.660;23.342;2022-12-01T05:55:02;2.60;;;1.80;;
8048;SDS011;20935;42.660;23.342;2022-12-01T05:57:27;2.57;;;1.97;;
8048;SDS011;20935;42.660;23.342;2022-12-01T05:59:53;1.93;;;1.83;;
8048;SDS011;20935;42.660;23.342;2022-12-01T06:02:18;2.03;;;1.93;;
8048;SDS011;20935;42.660;23.342;2022-12-01T06:04:43;2.47;;;2.27;;
8048;SDS011;20935;42.660;23.342;2022-12-01T06:07:08;1.83;;;1.73;;
8048;SDS011;20935;42.660;23.342;2022-12-01T06:09:34;4.23;;;2.23;;
8048;SDS011;20935;42.660;23.342;2022-12-01T06:11:59;2.73;;;1.87;;
8048;SDS011;20935;42.660;23.342;2022-12-01T06:14:24;1.73;;;1.60;;
8048;SDS011;20935;42.660;23.342;2022-12-01T06:16:49;2.70;;;1.80;;
8048;SDS011;20935;42.660;23.342;2022-12-01T06:19:15;2.30;;;2.00;;
8048;SDS011;20935;42.660;23.342;2022-12-01T06:21:40;2.17;;;2.07;;
8048;SDS011;20935;42.660;23.342;2022-12-01T06:24:05;2.77;;;1.90;;
8048;SDS011;20935;42.660;23.342;2022-12-01T06:26:31;4.17;;;2.07;;
8048;SDS011;20935;42.660;23.342;2022-12-01T06:28:56;2.10;;;1.90;;
8048;SDS011;20935;42.660;23.342;2022-12-01T06:31:21;2.70;;;1.80;;
8048;SDS011;20935;42.660;23.342;2022-12-01T06:33:46;2.00;;;1.80;;
8048;SDS011;20935;42.660;23.342;2022-12-01T06:36:11;1.83;;;1.70;;
8048;SDS011;20935;42.660;23.342;2022-12-01T06:38:37;3.90;;;2.03;;
8048;SDS011;20935;42.660;23.342;2022-12-01T06:41:02;3.67;;;1.87;;
8048;SDS011;20935;42.660;23.342;2022-12-01T06:43:28;3.87;;;2.10;;
8048;SDS011;20935;42.660;23.342;2022-12-01T06:45:53;2.13;;;2.00;;
8048;SDS011;20935;42.660;23.342;2022-12-01T06:48:18;3.87;;;2.20;;
8048;SDS011;20935;42.660;23.342;2022-12-01T06:50:43;1.70;;;1.60;;
8048;SDS011;20935;42.660;23.342;2022-12-01T06:53:09;2.17;;;1.77;;
8048;SDS011;20935;42.660;23.342;2022-12-01T06:55:35;1.80;;;1.53;;
8048;SDS011;20935;42.660;23.342;2022-12-01T06:58:00;3.70;;;1.97;;
8048;SDS011;20935;42.660;23.342;2022-12-01T07:00:26;2.47;;;2.23;;
8048;SDS011;20935;42.660;23.342;2022-12-01T07:02:51;2.13;;;2.03;;
8048;SDS011;20935;42.660;23.342;2022-12-01T07:05:16;2.10;;;1.90;;
8048;SDS011;20935;42.660;23.342;2022-12-01T07:07:41;3.43;;;2.10;;
8048;SDS011;20935;42.660;23.342;2022-12-01T07:10:07;2.23;;;1.80;;
8048;SDS011;20935;42.660;23.342;2022-12-01T07:12:33;2.33;;;2.13;;
8048;SDS011;20935;42.660;23.342;2022-12-01T07:14:58;3.87;;;2.33;;
8048;SDS011;20935;42.660;23.342;2022-12-01T07:17:24;5.27;;;2.80;;
8048;SDS011;20935;42.660;23.342;2022-12-01T07:19:49;2.03;;;1.83;;
8048;SDS011;20935;42.660;23.342;2022-12-01T07:22:14;2.13;;;1.93;;
8048;SDS011;20935;42.660;23.342;2022-12-01T07:24:39;2.53;;;1.73;;
8048;SDS011;20935;42.660;23.342;2022-12-01T07:27:05;4.03;;;2.00;;
8048;SDS011;20935;42.660;23.342;2022-12-01T07:29:30;4.17;;;2.23;;
8048;SDS011;20935;42.660;23.342;2022-12-01T07:31:55;2.90;;;1.97;;
8048;SDS011;20935;42.660;23.342;2022-12-01T07:34:20;2.87;;;1.83;;
8048;SDS011;20935;42.660;23.342;2022-12-01T07:36:46;5.03;;;2.30;;
8048;SDS011;20935;42.660;23.342;2022-12-01T07:39:11;1.97;;;1.87;;
8048;SDS011;20935;42.660;23.342;2022-12-01T07:41:36;2.20;;;2.10;;
8048;SDS011;20935;42.660;23.342;2022-12-01T07:44:01;4.60;;;2.30;;
8048;SDS011;20935;42.660;23.342;2022-12-01T07:46:27;2.33;;;1.90;;
8048;SDS011;20935;42.660;23.342;2022-12-01T07:48:53;2.23;;;2.03;;
8048;SDS011;20935;42.660;23.342;2022-12-01T07:51:18;1.80;;;1.70;;
8048;SDS011;20935;42.660;23.342;2022-12-01T07:53:44;2.00;;;1.90;;
8048;SDS011;20935;42.660;23.342;2022-12-01T07:56:10;2.00;;;1.87;;
8048;SDS011;20935;42.660;23.342;2022-12-01T07:58:35;2.03;;;1.93;;
8048;SDS011;20935;42.660;23.342;2022-12-01T08:01:05;1.80;;;1.70;;
8048;SDS011;20935;42.660;23.342;2022-12-01T08:03:30;3.77;;;1.63;;
8048;SDS011;20935;42.660;23.342;2022-12-01T08:05:56;3.17;;;1.87;;
8048;SDS011;20935;42.660;23.342;2022-12-01T08:08:22;2.00;;;1.90;;
8048;SDS011;20935;42.660;23.342;2022-12-01T08:10:47;2.50;;;2.10;;
8048;SDS011;20935;42.660;23.342;2022-12-01T08:13:13;3.40;;;2.20;;
8048;SDS011;20935;42.660;23.342;2022-12-01T08:15:38;3.73;;;2.07;;
8048;SDS011;20935;42.660;23.342;2022-12-01T08:18:03;2.17;;;1.97;;
8048;SDS011;20935;42.660;23.342;2022-12-01T08:20:28;2.17;;;1.97;;
8048;SDS011;20935;42.660;23.342;2022-12-01T08:22:54;5.87;;;2.80;;
8048;SDS011;20935;42.660;23.342;2022-12-01T08:25:19;4.20;;;2.50;;
8048;SDS011;20935;42.660;23.342;2022-12-01T08:27:44;4.30;;;2.30;;
8048;SDS011;20935;42.660;23.342;2022-12-01T08:30:10;2.90;;;2.10;;
8048;SDS011;20935;42.660;23.342;2022-12-01T08:32:35;2.50;;;2.27;;
8048;SDS011;20935;42.660;23.342;2022-12-01T08:35:00;2.50;;;1.90;;
8048;SDS011;20935;42.660;23.342;2022-12-01T08:37:25;4.63;;;1.90;;
8048;SDS011;20935;42.660;23.342;2022-12-01T08:39:51;3.23;;;2.30;;
8048;SDS011;20935;42.660;23.342;2022-12-01T08:42:16;4.83;;;2.70;;
8048;SDS011;20935;42.660;23.342;2022-12-01T08:44:41;2.60;;;2.00;;
8048;SDS011;20935;42.660;23.342;2022-12-01T08:47:06;2.43;;;2.20;;
8048;SDS011;20935;42.660;23.342;2022-12-01T08:49:32;4.93;;;2.30;;
8048;SDS011;20935;42.660;23.342;2022-12-01T08:51:57;2.67;;;2.33;;
8048;SDS011;20935;42.660;23.342;2022-12-01T08:54:22;2.70;;;1.80;;
8048;SDS011;20935;42.660;23.342;2022-12-01T08:56:47;3.80;;;2.10;;
8048;SDS011;20935;42.660;23.342;2022-12-01T08:59:13;3.07;;;2.33;;
8048;SDS011;20935;42.660;23.342;2022-12-01T09:01:39;2.30;;;2.10;;
8048;SDS011;20935;42.660;23.342;2022-12-01T09:04:16;3.03;;;2.00;;
8048;SDS011;20935;42.660;23.342;2022-12-01T09:06:42;6.37;;;2.53;;
8048;SDS011;20935;42.660;23.342;2022-12-01T09:09:09;5.67;;;2.20;;
8048;SDS011;20935;42.660;23.342;2022-12-01T09:11:36;2.77;;;2.03;;
8048;SDS011;20935;42.660;23.342;2022-12-01T09:14:01;4.40;;;2.57;;
8048;SDS011;20935;42.660;23.342;2022-12-01T09:16:26;3.40;;;2.20;;
8048;SDS011;20935;42.660;23.342;2022-12-01T09:18:52;4.17;;;2.50;;
8048;SDS011;20935;42.660;23.342;2022-12-01T09:21:18;3.73;;;2.20;;
8048;SDS011;20935;42.660;23.342;2022-12-01T09:23:44;3.37;;;2.47;;
8048;SDS011;20935;42.660;23.342;2022-12-01T09:26:10;2.60;;;2.17;;
8048;SDS011;20935;42.660;23.342;2022-12-01T09:28:35;3.67;;;2.83;;
8048;SDS011;20935;42.660;23.342;2022-12-01T09:31:04;4.37;;;2.80;;
8048;SDS011;20935;42.660;23.342;2022-12-01T09:33:30;4.40;;;2.60;;
8048;SDS011;20935;42.660;23.342;2022-12-01T09:35:59;2.07;;;1.90;;
8048;SDS011;20935;42.660;23.342;2022-12-01T09:38:24;2.73;;;1.93;;
8048;SDS011;20935;42.660;23.342;2022-12-01T09:40:50;3.43;;;2.33;;
8048;SDS011;20935;42.660;23.342;2022-12-01T09:43:17;3.53;;;2.73;;
8048;SDS011;20935;42.660;23.342;2022-12-01T09:45:46;3.13;;;2.33;;
8048;SDS011;20935;42.660;23.342;2022-12-01T09:48:24;3.27;;;2.63;;
8048;SDS011;20935;42.660;23.342;2022-12-01T09:50:49;2.33;;;1.90;;
8048;SDS011;20935;42.660;23.342;2022-12-01T09:53:16;2.23;;;1.90;;
8048;SDS011;20935;42.660;23.342;2022-12-01T09:55:43;2.53;;;2.30;;
8048;SDS011;20935;42.660;23.342;2022-12-01T09:58:12;2.40;;;2.20;;
8048;SDS011;20935;42.660;23.342;2022-12-01T10:00:40;2.80;;;2.20;;
8048;SDS011;20935;42.660;23.342;2022-12-01T10:06:09;2.50;;;2.30;;
8048;SDS011;20935;42.660;23.342;2022-12-01T10:08:36;2.23;;;2.03;;
8048;SDS011;20935;42.660;23.342;2022-12-01T10:11:05;2.63;;;2.00;;
8048;SDS011;20935;42.660;23.342;2022-12-01T10:13:32;1.80;;;1.70;;
8048;SDS011;20935;42.660;23.342;2022-12-01T10:23:23;2.60;;;1.83;;
8048;SDS011;20935;42.660;23.342;2022-12-01T10:30:49;2.07;;;1.90;;
8048;SDS011;20935;42.660;23.342;2022-12-01T10:33:24;3.20;;;2.10;;
8048;SDS011;20935;42.660;23.342;2022-12-01T10:35:50;1.97;;;1.80;;
8048;SDS011;20935;42.660;23.342;2022-12-01T10:38:29;2.20;;;2.03;;
8048;SDS011;20935;42.660;23.342;2022-12-01T10:40:55;3.70;;;1.90;;
8048;SDS011;20935;42.660;23.342;2022-12-01T10:43:27;2.03;;;1.87;;
8048;SDS011;20935;42.660;23.342;2022-12-01T10:45:53;2.33;;;2.17;;
8048;SDS011;20935;42.660;23.342;2022-12-01T10:48:21;2.80;;;1.97;;
8048;SDS011;20935;42.660;23.342;2022-12-01T10:50:47;3.00;;;1.90;;
8048;SDS011;20935;42.660;23.342;2022-12-01T10:55:55;2.40;;;2.10;;
8048;SDS011;20935;42.660;23.342;2022-12-01T10:58:21;2.00;;;1.80;;
8048;SDS011;20935;42.660;23.342;2022-12-01T11:00:54;2.30;;;2.10;;
8048;SDS011;20935;42.660;23.342;2022-12-01T11:03:24;3.57;;;1.97;;
8048;SDS011;20935;42.660;23.342;2022-12-01T11:05:54;1.83;;;1.73;;
8048;SDS011;20935;42.660;23.342;2022-12-01T11:08:22;3.03;;;2.07;;
8048;SDS011;20935;42.660;23.342;2022-12-01T11:10:48;1.87;;;1.70;;
8048;SDS011;20935;42.660;23.342;2022-12-01T11:13:23;1.97;;;1.87;;
8048;SDS011;20935;42.660;23.342;2022-12-01T11:15:59;2.07;;;1.87;;
8048;SDS011;20935;42.660;23.342;2022-12-01T11:21:12;2.00;;;1.80;;
8048;SDS011;20935;42.660;23.342;2022-12-01T11:23:48;2.20;;;1.97;;
8048;SDS011;20935;42.660;23.342;2022-12-01T11:28:48;1.87;;;1.70;;
8048;SDS011;20935;42.660;23.342;2022-12-01T11:31:14;2.23;;;1.93;;
8048;SDS011;20935;42.660;23.342;2022-12-01T11:33:44;2.10;;;1.90;;
8048;SDS011;20935;42.660;23.342;2022-12-01T11:36:17;1.80;;;1.70;;
8048;SDS011;20935;42.660;23.342;2022-12-01T11:38:43;2.43;;;2.00;;
8048;SDS011;20935;42.660;23.342;2022-12-01T11:41:08;2.07;;;1.97;;
8048;SDS011;20935;42.660;23.342;2022-12-01T11:43:47;2.27;;;2.00;;
8048;SDS011;20935;42.660;23.342;2022-12-01T11:46:12;3.57;;;2.20;;
8048;SDS011;20935;42.660;23.342;2022-12-01T11:48:37;2.73;;;2.13;;
8048;SDS011;20935;42.660;23.342;2022-12-01T11:51:04;2.77;;;2.30;;
8048;SDS011;20935;42.660;23.342;2022-12-01T11:53:32;3.33;;;2.37;;
8048;SDS011;20935;42.660;23.342;2022-12-01T11:56:18;2.27;;;2.07;;
8048;SDS011;20935;42.660;23.342;2022-12-01T11:58:45;2.23;;;2.03;;
8048;SDS011;20935;42.660;23.342;2022-12-01T12:06:29;4.33;;;1.90;;
8048;SDS011;20935;42.660;23.342;2022-12-01T12:09:02;3.73;;;2.30;;
8048;SDS011;20935;42.660;23.342;2022-12-01T12:11:32;3.60;;;2.20;;
8048;SDS011;20935;42.660;23.342;2022-12-01T12:24:31;2.77;;;2.37;;
8048;SDS011;20935;42.660;23.342;2022-12-01T12:27:08;1.80;;;1.70;;
8048;SDS011;20935;42.660;23.342;2022-12-01T12:40:23;4.43;;;2.23;;
8048;SDS011;20935;42.660;23.342;2022-12-01T12:52:36;2.07;;;1.90;;
8048;SDS011;20935;42.660;23.342;2022-12-01T12:57:32;1.60;;;1.50;;
8048;SDS011;20935;42.660;23.342;2022-12-01T12:59:59;2.47;;;2.27;;
8048;SDS011;20935;42.660;23.342;2022-12-01T13:02:44;2.37;;;2.17;;
8048;SDS011;20935;42.660;23.342;2022-12-01T13:05:22;3.73;;;2.20;;
8048;SDS011;20935;42.660;23.342;2022-12-01T13:07:50;3.93;;;2.00;;
8048;SDS011;20935;42.660;23.342;2022-12-01T13:10:22;1.90;;;1.80;;
8048;SDS011;20935;42.660;23.342;2022-12-01T13:12:53;2.57;;;2.00;;
8048;SDS011;20935;42.660;23.342;2022-12-01T13:15:20;3.27;;;2.00;;
8048;SDS011;20935;42.660;23.342;2022-12-01T13:17:52;6.97;;;2.10;;
8048;SDS011;20935;42.660;23.342;2022-12-01T13:20:20;2.03;;;1.80;;
8048;SDS011;20935;42.660;23.342;2022-12-01T13:22:46;2.33;;;2.13;;
8048;SDS011;20935;42.660;23.342;2022-12-01T13:25:12;3.00;;;1.80;;
8048;SDS011;20935;42.660;23.342;2022-12-01T13:27:39;1.77;;;1.67;;
8048;SDS011;20935;42.660;23.342;2022-12-01T13:30:06;3.00;;;2.43;;
8048;SDS011;20935;42.660;23.342;2022-12-01T13:32:40;2.33;;;2.07;;
8048;SDS011;20935;42.660;23.342;2022-12-01T13:35:19;2.47;;;2.27;;
8048;SDS011;20935;42.660;23.342;2022-12-01T13:37:45;2.47;;;2.20;;
8048;SDS011;20935;42.660;23.342;2022-12-01T13:40:19;3.30;;;2.50;;
8048;SDS011;20935;42.660;23.342;2022-12-01T13:43:03;4.23;;;2.00;;
8048;SDS011;20935;42.660;23.342;2022-12-01T13:45:34;4.37;;;2.53;;
8048;SDS011;20935;42.660;23.342;2022-12-01T13:47:59;2.70;;;2.20;;
8048;SDS011;20935;42.660;23.342;2022-12-01T13:55:34;2.43;;;2.20;;
8048;SDS011;20935;42.660;23.342;2022-12-01T13:58:16;4.73;;;2.10;;
8048;SDS011;20935;42.660;23.342;2022-12-01T14:00:42;3.50;;;2.13;;
8048;SDS011;20935;42.660;23.342;2022-12-01T14:08:12;2.83;;;2.47;;
8048;SDS011;20935;42.660;23.342;2022-12-01T14:10:37;4.30;;;2.83;;
8048;SDS011;20935;42.660;23.342;2022-12-01T14:13:03;3.10;;;2.00;;
8048;SDS011;20935;42.660;23.342;2022-12-01T14:17:59;3.00;;;2.20;;
8048;SDS011;20935;42.660;23.342;2022-12-01T14:20:25;2.10;;;1.90;;
8048;SDS011;20935;42.660;23.342;2022-12-01T14:25:35;2.17;;;1.97;;
8048;SDS011;20935;42.660;23.342;2022-12-01T14:28:02;4.70;;;2.10;;
8048;SDS011;20935;42.660;23.342;2022-12-01T14:35:56;3.93;;;2.23;;
8048;SDS011;20935;42.660;23.342;2022-12-01T14:38:22;5.20;;;2.40;;
8048;SDS011;20935;42.660;23.342;2022-12-01T14:40:47;2.50;;;2.30;;
8048;SDS011;20935;42.660;23.342;2022-12-01T14:43:12;2.60;;;2.40;;
8048;SDS011;20935;42.660;23.342;2022-12-01T14:46:02;4.60;;;2.43;;
8048;SDS011;20935;42.660;23.342;2022-12-01T14:48:36;2.83;;;2.17;;
8048;SDS011;20935;42.660;23.342;2022-12-01T14:51:14;2.93;;;2.23;;
8048;SDS011;20935;42.660;23.342;2022-12-01T14:53:40;2.70;;;2.27;;
8048;SDS011;20935;42.660;23.342;2022-12-01T14:56:10;2.70;;;2.50;;
8048;SDS011;20935;42.660;23.342;2022-12-01T14:58:36;2.27;;;2.07;;
8048;SDS011;20935;42.660;23.342;2022-12-01T15:03:37;2.10;;;1.90;;
8048;SDS011;20935;42.660;23.342;2022-12-01T15:06:03;2.00;;;1.90;;
8048;SDS011;20935;42.660;23.342;2022-12-01T15:08:31;2.13;;;1.90;;
8048;SDS011;20935;42.660;23.342;2022-12-01T15:10:57;2.03;;;1.70;;
8048;SDS011;20935;42.660;23.342;2022-12-01T15:15:52;4.37;;;3.30;;
8048;SDS011;20935;42.660;23.342;2022-12-01T15:18:31;3.03;;;2.17;;
8048;SDS011;20935;42.660;23.342;2022-12-01T15:21:00;2.33;;;2.13;;
8048;SDS011;20935;42.660;23.342;2022-12-01T15:23:27;2.03;;;1.83;;
8048;SDS011;20935;42.660;23.342;2022-12-01T15:25:54;2.20;;;2.00;;
8048;SDS011;20935;42.660;23.342;2022-12-01T15:28:21;2.50;;;1.87;;
8048;SDS011;20935;42.660;23.342;2022-12-01T15:30:48;2.43;;;2.33;;
8048;SDS011;20935;42.660;23.342;2022-12-01T15:33:19;2.47;;;2.00;;
8048;SDS011;20935;42.660;23.342;2022-12-01T15:35:44;4.80;;;1.77;;
8048;SDS011;20935;42.660;23.342;2022-12-01T15:38:16;3.27;;;2.40;;
8048;SDS011;20935;42.660;23.342;2022-12-01T15:40:43;2.37;;;2.03;;
8048;SDS011;20935;42.660;23.342;2022-12-01T15:43:18;1.87;;;1.70;;
8048;SDS011;20935;42.660;23.342;2022-12-01T15:45:54;2.57;;;1.70;;
8048;SDS011;20935;42.660;23.342;2022-12-01T15:48:25;2.10;;;2.00;;
8048;SDS011;20935;42.660;23.342;2022-12-01T15:53:32;2.40;;;2.07;;
8048;SDS011;20935;42.660;23.342;2022-12-01T15:55:58;2.10;;;1.83;;
8048;SDS011;20935;42.660;23.342;2022-12-01T15:58:24;2.40;;;2.20;;
8048;SDS011;20935;42.660;23.342;2022-12-01T16:03:18;2.37;;;1.70;;
8048;SDS011;20935;42.660;23.342;2022-12-01T16:05:43;2.57;;;2.37;;
8048;SDS011;20935;42.660;23.342;2022-12-01T16:08:13;3.70;;;2.03;;
8048;SDS011;20935;42.660;23.342;2022-12-01T16:10:38;1.83;;;1.63;;
8048;SDS011;20935;42.660;23.342;2022-12-01T16:15:48;1.90;;;1.80;;
8048;SDS011;20935;42.660;23.342;2022-12-01T16:18:23;3.53;;;2.27;;
8048;SDS011;20935;42.660;23.342;2022-12-01T16:20:50;2.17;;;1.97;;
8048;SDS011;20935;42.660;23.342;2022-12-01T16:23:19;3.13;;;2.10;;
8048;SDS011;20935;42.660;23.342;2022-12-01T16:25:46;2.77;;;2.57;;
8048;SDS011;20935;42.660;23.342;2022-12-01T16:28:31;2.30;;;2.10;;
8048;SDS011;20935;42.660;23.342;2022-12-01T16:30:57;2.10;;;1.80;;
8048;SDS011;20935;42.660;23.342;2022-12-01T16:33:25;3.10;;;2.00;;
8048;SDS011;20935;42.660;23.342;2022-12-01T16:35:51;2.07;;;1.97;;
8048;SDS011;20935;42.660;23.342;2022-12-01T16:38:17;2.07;;;1.87;;
8048;SDS011;20935;42.660;23.342;2022-12-01T16:40:47;3.27;;;1.77;;
8048;SDS011;20935;42.660;23.342;2022-12-01T16:43:13;4.97;;;2.40;;
8048;SDS011;20935;42.660;23.342;2022-12-01T16:45:39;2.77;;;2.17;;
8048;SDS011;20935;42.660;23.342;2022-12-01T16:48:04;3.43;;;2.10;;
8048;SDS011;20935;42.660;23.342;2022-12-01T16:50:29;2.60;;;2.23;;
8048;SDS011;20935;42.660;23.342;2022-12-01T16:52:54;2.63;;;2.30;;
8048;SDS011;20935;42.660;23.342;2022-12-01T16:57:45;2.90;;;2.20;;
8048;SDS011;20935;42.660;23.342;2022-12-01T17:00:10;3.20;;;2.50;;
8048;SDS011;20935;42.660;23.342;2022-12-01T17:02:36;5.13;;;2.60;;
8048;SDS011;20935;42.660;23.342;2022-12-01T17:05:01;3.77;;;2.70;;
8048;SDS011;20935;42.660;23.342;2022-12-01T17:07:26;5.47;;;2.77;;
8048;SDS011;20935;42.660;23.342;2022-12-01T17:09:51;3.10;;;2.50;;